createdAt,value
2022-08-17T00:03:51.159Z,0.00
2022-08-17T00:13:58.714Z,0.00
2022-08-17T00:24:05.828Z,0.00
2022-08-17T00:34:15.997Z,0.00
2022-08-17T00:44:23.051Z,0.00
2022-08-17T00:54:41.037Z,0.00
2022-08-17T01:04:47.871Z,0.00
2022-08-17T01:14:55.098Z,0.00
2022-08-17T01:25:02.327Z,0.00
2022-08-17T01:35:11.095Z,0.00
2022-08-17T01:45:18.580Z,0.00
2022-08-17T01:56:47.153Z,0.00
2022-08-17T02:08:19.859Z,0.00
2022-08-17T02:18:24.756Z,0.00
2022-08-17T02:28:32.068Z,0.00
2022-08-17T02:39:58.805Z,0.00
2022-08-17T02:51:25.028Z,0.00
2022-08-17T03:06:49.130Z,0.00
2022-08-17T03:16:54.109Z,0.00
2022-08-17T03:28:21.109Z,16.00
2022-08-17T03:39:47.082Z,80.00
2022-08-17T03:49:53.346Z,220.00
2022-08-17T04:00:00.424Z,456.00
2022-08-17T04:11:27.450Z,844.00
2022-08-17T04:21:36.052Z,1324.00
2022-08-17T04:31:43.515Z,2004.00
2022-08-17T04:41:53.632Z,2716.00
2022-08-17T04:53:20.421Z,4016.00
2022-08-17T05:04:47.413Z,4320.00
2022-08-17T05:14:54.402Z,4568.00
2022-08-17T05:25:02.806Z,4620.00
2022-08-17T05:36:42.517Z,4236.00
2022-08-17T05:46:41.980Z,4816.00
2022-08-17T06:00:49.212Z,5536.00
2022-08-17T06:10:55.835Z,5192.00
2022-08-17T06:21:04.136Z,5772.00
2022-08-17T06:32:31.815Z,6408.00
2022-08-17T06:42:59.945Z,7256.00
2022-08-17T06:52:53.694Z,8536.00
2022-08-17T07:03:01.676Z,9276.00
2022-08-17T07:59:34.480Z,61440.00
2022-08-17T08:22:59.344Z,68256.00
2022-08-17T08:33:05.416Z,68352.00
2022-08-17T08:45:55.804Z,73088.00
2022-08-17T08:57:29.038Z,57696.00
2022-08-17T09:07:34.276Z,62016.00
2022-08-17T09:28:20.036Z,69984.00
2022-08-17T09:43:44.117Z,69888.00
2022-08-17T09:55:12.105Z,70048.00
2022-08-17T10:10:42.203Z,70880.00
2022-08-17T10:22:14.740Z,67360.00
2022-08-17T10:32:30.998Z,45664.00
2022-08-17T10:44:38.415Z,74336.00
2022-08-17T10:54:12.103Z,15184.00
2022-08-17T11:18:54.954Z,75360.00
2022-08-17T11:31:43.921Z,75744.00
2022-08-17T11:53:48.074Z,64384.00
2022-08-17T12:05:15.372Z,20096.00
2022-08-17T12:18:02.260Z,68768.00
2022-08-17T12:29:35.600Z,20416.00
2022-08-17T12:43:43.899Z,60160.00
2022-08-17T12:55:10.030Z,14656.00
2022-08-17T13:06:36.140Z,13428.00
2022-08-17T13:26:09.547Z,11852.00
2022-08-17T14:57:23.086Z,10116.00
2022-08-17T15:28:35.225Z,8072.00
2022-08-17T15:38:41.358Z,7892.00
2022-08-17T15:48:52.299Z,7652.00
2022-08-17T16:00:19.507Z,7388.00
2022-08-17T16:10:35.000Z,6416.00
2022-08-17T16:21:58.766Z,4716.00
2022-08-17T17:13:11.782Z,2340.00
2022-08-17T17:23:17.416Z,2448.00
2022-08-17T17:33:24.747Z,2112.00
2022-08-17T17:47:30.827Z,1352.00
2022-08-17T17:58:59.622Z,1100.00
2022-08-17T18:22:24.149Z,368.00
2022-08-17T18:39:06.577Z,44.00
2022-08-17T18:50:31.629Z,12.00
2022-08-17T19:37:48.656Z,0.00
2022-08-17T20:10:25.942Z,0.00
2022-08-17T20:25:49.337Z,0.00
2022-08-17T20:41:13.005Z,0.00
2022-08-17T21:01:54.711Z,0.00
2022-08-17T21:12:03.010Z,0.00
2022-08-17T21:26:11.564Z,0.00
2022-08-17T21:36:17.877Z,0.00
2022-08-17T21:46:25.584Z,0.00
2022-08-17T22:05:49.612Z,0.00
2022-08-17T22:19:54.195Z,0.00
2022-08-17T22:32:39.348Z,0.00
2022-08-17T22:42:45.405Z,0.00
2022-08-17T23:51:06.462Z,0.00
